createdAt,value
2022-10-21T00:04:31.171Z,97094.59
2022-10-21T00:09:36.095Z,97088.63
2022-10-21T00:14:39.630Z,97081.06
2022-10-21T00:19:43.204Z,97064.94
2022-10-21T00:24:48.856Z,97075.16
2022-10-21T00:29:52.315Z,97069.00
2022-10-21T00:34:56.157Z,97076.31
2022-10-21T00:40:00.933Z,97087.41
2022-10-21T00:45:18.209Z,97091.72
2022-10-21T00:50:31.841Z,97085.34
2022-10-21T00:55:40.069Z,97090.66
2022-10-21T01:00:43.640Z,97082.25
2022-10-21T01:05:47.388Z,97082.59
2022-10-21T01:10:52.236Z,97092.09
2022-10-21T01:16:08.937Z,97092.28
2022-10-21T01:21:26.241Z,97077.63
2022-10-21T01:27:04.572Z,97077.97
2022-10-21T01:32:16.302Z,97074.84
2022-10-21T01:37:25.978Z,97061.22
2022-10-21T01:42:37.303Z,97053.50
2022-10-21T01:47:47.771Z,97032.91
2022-10-21T01:52:56.079Z,97017.50
2022-10-21T01:58:03.661Z,97012.03
2022-10-21T02:03:12.360Z,97020.47
2022-10-21T02:08:16.031Z,97012.81
2022-10-21T02:13:24.177Z,97000.41
2022-10-21T02:18:28.943Z,96992.13
2022-10-21T02:23:40.331Z,96988.25
2022-10-21T02:28:44.622Z,96986.06
2022-10-21T02:34:04.011Z,96980.38
2022-10-21T02:39:12.881Z,96965.34
2022-10-21T02:44:17.195Z,96963.75
2022-10-21T02:49:22.024Z,96971.00
2022-10-21T02:54:25.447Z,96957.84
2022-10-21T02:59:28.823Z,96944.16
2022-10-21T03:04:33.785Z,96949.53
2022-10-21T03:09:37.240Z,96953.19
2022-10-21T03:14:40.606Z,96949.50
2022-10-21T03:19:45.378Z,96938.50
2022-10-21T03:24:48.778Z,96931.97
2022-10-21T03:29:52.297Z,96928.06
2022-10-21T03:34:57.235Z,96922.81
2022-10-21T03:40:00.622Z,96919.84
2022-10-21T03:45:04.289Z,96929.16
2022-10-21T03:50:13.972Z,96938.16
2022-10-21T03:55:21.099Z,96916.38
2022-10-21T04:00:27.130Z,96913.25
2022-10-21T04:05:35.112Z,96919.16
2022-10-21T04:10:38.512Z,96943.28
2022-10-21T04:15:46.105Z,96928.88
2022-10-21T04:20:51.298Z,96934.44
2022-10-21T04:25:54.678Z,96928.88
2022-10-21T04:31:00.333Z,96943.97
2022-10-21T04:36:05.796Z,96933.13
2022-10-21T04:41:09.343Z,96930.19
2022-10-21T04:46:15.441Z,96924.09
2022-10-21T04:51:20.358Z,96916.22
2022-10-21T04:56:23.802Z,96915.25
2022-10-21T05:01:27.470Z,96908.31
2022-10-21T05:06:32.872Z,96897.63
2022-10-21T05:11:36.342Z,96886.94
2022-10-21T05:16:39.713Z,96870.91
2022-10-21T05:21:46.531Z,96859.28
2022-10-21T05:26:50.047Z,96863.84
2022-10-21T05:31:53.528Z,96856.38
2022-10-21T05:36:58.533Z,96848.59
2022-10-21T05:42:02.205Z,96837.97
2022-10-21T05:47:05.688Z,96842.50
2022-10-21T05:52:10.459Z,96832.38
2022-10-21T05:57:13.935Z,96846.84
2022-10-21T06:02:17.316Z,96848.56
2022-10-21T06:07:22.027Z,96836.25
2022-10-21T06:12:25.559Z,96823.81
2022-10-21T06:17:29.187Z,96823.91
2022-10-21T06:22:33.998Z,96833.53
2022-10-21T06:27:37.910Z,96834.53
2022-10-21T06:32:41.465Z,96842.66
2022-10-21T06:37:47.114Z,96841.13
2022-10-21T06:42:51.377Z,96844.94
2022-10-21T06:47:55.171Z,96852.88
2022-10-21T06:53:00.616Z,96847.91
2022-10-21T06:58:04.384Z,96844.59
2022-10-21T07:03:08.147Z,96856.00
2022-10-21T07:08:12.986Z,96855.81
2022-10-21T07:13:16.504Z,96854.97
2022-10-21T07:18:19.888Z,96845.78
2022-10-21T07:23:24.671Z,96850.47
2022-10-21T07:28:30.923Z,96839.75
2022-10-21T07:33:35.920Z,96841.47
2022-10-21T07:38:41.264Z,96839.81
2022-10-21T07:43:44.773Z,96840.94
2022-10-21T07:48:48.682Z,96838.19
2022-10-21T07:53:55.915Z,96841.91
2022-10-21T07:59:01.507Z,96843.66
2022-10-21T08:04:05.463Z,96835.13
2022-10-21T08:09:10.492Z,96845.22
2022-10-21T08:14:14.042Z,96844.72
2022-10-21T08:19:20.566Z,96850.19
2022-10-21T08:24:43.700Z,96846.44
2022-10-21T08:29:48.671Z,96854.13
2022-10-21T08:34:52.606Z,96851.53
2022-10-21T08:39:58.421Z,96843.78
2022-10-21T08:45:07.099Z,96834.50
2022-10-21T08:50:15.267Z,96843.41
2022-10-21T08:55:24.269Z,96847.78
2022-10-21T09:00:34.748Z,96851.28
2022-10-21T09:06:14.380Z,96861.22
2022-10-21T09:11:29.886Z,96861.41
2022-10-21T09:16:44.274Z,96865.84
2022-10-21T09:22:16.357Z,96870.09
2022-10-21T09:27:32.381Z,96851.75
2022-10-21T09:32:51.075Z,96848.66
2022-10-21T09:37:57.558Z,96843.31
2022-10-21T09:43:02.647Z,96844.81
2022-10-21T09:48:13.809Z,96832.25
2022-10-21T09:53:24.157Z,96836.72
2022-10-21T09:58:46.414Z,96831.84
2022-10-21T10:03:52.265Z,96835.88
2022-10-21T10:09:08.028Z,96824.69
2022-10-21T10:14:25.632Z,96835.59
2022-10-21T10:19:30.077Z,96840.91
2022-10-21T10:24:33.623Z,96836.34
2022-10-21T10:29:39.026Z,96841.22
2022-10-21T10:34:53.986Z,96830.78
2022-10-21T10:40:02.352Z,96815.59
2022-10-21T10:45:17.100Z,96820.97
2022-10-21T10:50:44.199Z,96818.94
2022-10-21T10:55:52.666Z,96833.44
2022-10-21T11:01:02.476Z,96836.34
2022-10-21T11:06:16.614Z,96847.34
2022-10-21T11:11:26.068Z,96857.16
2022-10-21T11:16:59.031Z,96858.41
2022-10-21T11:22:14.638Z,96855.53
2022-10-21T11:27:26.851Z,96859.22
2022-10-21T11:32:45.286Z,96844.00
2022-10-21T11:38:03.957Z,96848.75
2022-10-21T11:43:20.640Z,96843.09
2022-10-21T11:48:46.602Z,96841.22
2022-10-21T11:54:08.490Z,96841.25
2022-10-21T11:59:27.431Z,96837.69
2022-10-21T12:04:39.930Z,96837.13
2022-10-21T12:09:50.403Z,96841.16
2022-10-21T12:14:58.770Z,96839.44
2022-10-21T12:20:07.315Z,96838.25
2022-10-21T12:25:24.111Z,96847.53
2022-10-21T12:30:36.399Z,96854.41
2022-10-21T12:35:50.800Z,96850.56
2022-10-21T12:41:22.648Z,96844.84
2022-10-21T12:46:28.914Z,96850.75
2022-10-21T12:51:36.816Z,96837.66
2022-10-21T12:56:46.420Z,96828.28
2022-10-21T13:02:21.378Z,96833.75
2022-10-21T13:07:38.119Z,96820.66
2022-10-21T13:12:43.077Z,96824.81
2022-10-21T13:17:53.446Z,96814.97
2022-10-21T13:23:33.263Z,96824.19
2022-10-21T13:28:37.027Z,96808.75
2022-10-21T13:33:41.842Z,96800.47
2022-10-21T13:38:53.641Z,96811.59
2022-10-21T13:44:00.187Z,96824.28
2022-10-21T13:49:04.776Z,96835.66
2022-10-21T13:54:13.768Z,96837.34
2022-10-21T13:59:25.550Z,96843.16
2022-10-21T14:04:31.445Z,96835.13
2022-10-21T14:09:41.649Z,96854.69
2022-10-21T14:14:46.038Z,96861.53
2022-10-21T14:19:53.033Z,96868.53
2022-10-21T14:25:02.510Z,96861.28
2022-10-21T14:30:10.225Z,96853.75
2022-10-21T14:35:33.549Z,96855.00
2022-10-21T14:40:40.823Z,96860.25
2022-10-21T14:45:51.167Z,96865.91
2022-10-21T14:51:00.016Z,96864.97
2022-10-21T14:56:07.787Z,96877.72
2022-10-21T15:01:15.615Z,96874.19
2022-10-21T15:06:21.311Z,96872.69
2022-10-21T15:11:35.952Z,96884.47
2022-10-21T15:16:47.778Z,96899.66
2022-10-21T15:21:55.397Z,96914.97
2022-10-21T15:27:03.237Z,96913.31
2022-10-21T15:32:07.589Z,96900.84
2022-10-21T15:37:11.486Z,96902.00
2022-10-21T15:42:24.004Z,96906.00
2022-10-21T15:47:27.388Z,96908.50
2022-10-21T15:52:30.944Z,96922.69
2022-10-21T15:57:36.128Z,96922.81
2022-10-21T16:02:41.846Z,96914.09
2022-10-21T16:07:46.230Z,96915.06
2022-10-21T16:12:53.359Z,96915.75
2022-10-21T16:17:58.509Z,96919.88
2022-10-21T16:23:03.191Z,96918.56
2022-10-21T16:28:08.388Z,96932.84
2022-10-21T16:33:12.197Z,96928.69
2022-10-21T16:38:15.655Z,96917.50
2022-10-21T16:43:20.681Z,96918.09
2022-10-21T16:48:24.010Z,96924.91
2022-10-21T16:53:29.290Z,96923.53
2022-10-21T16:58:34.142Z,96926.53
2022-10-21T17:03:37.608Z,96941.22
2022-10-21T17:08:41.246Z,96929.06
2022-10-21T17:13:46.868Z,96924.53
2022-10-21T17:18:50.623Z,96928.53
2022-10-21T17:23:55.610Z,96923.53
2022-10-21T17:29:00.890Z,96928.91
2022-10-21T17:34:08.528Z,96926.69
2022-10-21T17:39:12.868Z,96930.56
2022-10-21T17:44:18.358Z,96934.44
2022-10-21T17:49:21.903Z,96923.50
2022-10-21T17:54:28.543Z,96925.56
2022-10-21T17:59:34.972Z,96928.75
2022-10-21T18:04:38.951Z,96931.63
2022-10-21T18:09:42.656Z,96939.97
2022-10-21T18:14:47.525Z,96939.91
2022-10-21T18:19:52.603Z,96930.66
2022-10-21T18:24:56.367Z,96931.88
2022-10-21T18:30:01.663Z,96933.56
2022-10-21T18:35:05.830Z,96928.00
2022-10-21T18:40:11.190Z,96939.44
2022-10-21T18:45:17.078Z,96929.09
2022-10-21T18:50:20.992Z,96914.34
2022-10-21T18:55:26.005Z,96928.25
2022-10-21T19:00:33.675Z,96930.38
2022-10-21T19:05:37.284Z,96934.78
2022-10-21T19:10:57.426Z,96923.13
2022-10-21T19:16:08.274Z,96928.34
2022-10-21T19:21:14.690Z,96928.63
2022-10-21T19:26:22.277Z,96933.72
2022-10-21T19:31:34.727Z,96922.78
2022-10-21T19:36:41.250Z,96925.38
2022-10-21T19:41:45.387Z,96939.50
2022-10-21T19:46:51.020Z,96935.69
2022-10-21T19:51:56.318Z,96920.94
2022-10-21T19:57:01.990Z,96932.97
2022-10-21T20:02:08.979Z,96944.13
2022-10-21T20:07:15.966Z,96935.81
2022-10-21T20:12:20.350Z,96927.50
2022-10-21T20:17:28.377Z,96933.91
2022-10-21T20:22:32.325Z,96949.63
2022-10-21T20:27:38.600Z,96938.28
2022-10-21T20:32:44.420Z,96947.16
2022-10-21T20:37:48.174Z,96978.66
2022-10-21T20:42:52.502Z,96988.31
2022-10-21T20:47:58.165Z,97015.31
2022-10-21T20:53:02.143Z,97000.94
2022-10-21T20:58:06.717Z,96984.28
2022-10-21T21:03:14.675Z,96984.25
2022-10-21T21:08:27.592Z,96965.63
2022-10-21T21:13:31.741Z,96950.22
2022-10-21T21:18:37.485Z,96968.31
2022-10-21T21:23:42.940Z,96971.94
2022-10-21T21:28:48.018Z,96965.78
2022-10-21T21:33:55.900Z,96966.22
2022-10-21T21:38:59.997Z,96938.81
2022-10-21T21:44:05.550Z,96945.34
2022-10-21T21:49:11.608Z,96943.34
2022-10-21T21:54:15.573Z,96941.34
2022-10-21T21:59:19.073Z,96934.16
2022-10-21T22:04:24.380Z,96923.50
2022-10-21T22:09:27.731Z,96923.56
2022-10-21T22:14:31.114Z,96945.03
2022-10-21T22:19:36.210Z,96943.50
2022-10-21T22:24:39.699Z,96937.47
2022-10-21T22:29:42.957Z,96945.56
2022-10-21T22:34:47.799Z,96951.22
2022-10-21T22:39:52.761Z,96940.88
2022-10-21T22:44:56.520Z,96958.47
2022-10-21T22:50:01.396Z,96939.53
2022-10-21T22:55:06.269Z,96911.03
2022-10-21T23:00:10.609Z,96915.91
2022-10-21T23:05:15.658Z,96947.38
2022-10-21T23:10:19.114Z,96956.50
2022-10-21T23:15:22.479Z,96944.22
2022-10-21T23:20:27.284Z,96925.09
2022-10-21T23:25:31.156Z,96909.84
2022-10-21T23:30:34.722Z,96918.38
2022-10-21T23:35:39.496Z,96940.41
2022-10-21T23:40:43.033Z,96935.16
2022-10-21T23:45:46.354Z,96936.34
2022-10-21T23:50:51.349Z,96952.59
2022-10-21T23:55:54.638Z,96953.00
